createdAt,value
2023-09-27T00:00:57.610Z,11.437
2023-09-27T00:03:57.578Z,11.437
2023-09-27T00:06:57.130Z,10.562
2023-09-27T00:09:57.351Z,10.437
2023-09-27T00:12:57.258Z,11.25
2023-09-27T00:15:56.712Z,10.875
2023-09-27T00:18:57.303Z,10.875
2023-09-27T00:21:57.269Z,10.375
2023-09-27T00:24:57.300Z,10.562
2023-09-27T00:27:57.508Z,10.812
2023-09-27T00:30:57.722Z,10.75
2023-09-27T00:33:57.190Z,10.625
2023-09-27T00:36:57.022Z,10.687
2023-09-27T00:39:57.750Z,10.687
2023-09-27T00:42:56.988Z,10.937
2023-09-27T00:45:57.045Z,10.937
2023-09-27T00:48:57.578Z,10.812
2023-09-27T00:51:57.437Z,10.812
2023-09-27T00:54:56.909Z,10.5
2023-09-27T00:57:57.675Z,10.312
2023-09-27T01:00:57.717Z,10.25
2023-09-27T01:03:56.634Z,10.25
2023-09-27T01:06:56.902Z,10.0
2023-09-27T01:09:58.320Z,10.0
2023-09-27T01:12:56.632Z,10.312
2023-09-27T01:15:57.404Z,10.687
2023-09-27T01:18:57.819Z,11.187
2023-09-27T01:21:57.633Z,11.062
2023-09-27T01:24:56.927Z,10.75
2023-09-27T01:27:57.264Z,10.437
2023-09-27T01:30:57.255Z,10.437
2023-09-27T01:33:57.173Z,10.062
2023-09-27T01:36:57.821Z,9.937
2023-09-27T01:39:57.197Z,9.875
2023-09-27T01:42:57.547Z,9.875
2023-09-27T01:45:56.862Z,9.562
2023-09-27T01:48:57.632Z,9.437
2023-09-27T01:51:57.475Z,9.375
2023-09-27T01:54:57.267Z,9.375
2023-09-27T01:57:57.723Z,9.875
2023-09-27T02:00:57.811Z,9.875
2023-09-27T02:03:57.824Z,9.687
2023-09-27T02:06:57.411Z,9.562
2023-09-27T02:09:57.510Z,9.5
2023-09-27T02:12:57.106Z,9.5
2023-09-27T02:15:57.595Z,9.375
2023-09-27T02:18:57.497Z,9.187
2023-09-27T02:21:56.909Z,9.125
2023-09-27T02:24:57.138Z,9.125
2023-09-27T02:27:56.655Z,8.937
2023-09-27T02:30:57.255Z,9.062
2023-09-27T02:33:57.456Z,9.062
2023-09-27T02:36:57.760Z,9.437
2023-09-27T02:39:57.299Z,9.437
2023-09-27T02:42:57.078Z,9.437
2023-09-27T02:45:57.734Z,9.187
2023-09-27T02:48:57.138Z,9.125
2023-09-27T02:51:57.359Z,9.0
2023-09-27T02:54:56.922Z,8.812
2023-09-27T02:57:57.546Z,8.75
2023-09-27T03:00:57.171Z,8.75
2023-09-27T03:03:57.010Z,9.312
2023-09-27T03:06:56.863Z,9.125
2023-09-27T03:09:57.941Z,9.375
2023-09-27T03:12:57.638Z,9.687
2023-09-27T03:15:57.723Z,9.875
2023-09-27T03:18:57.160Z,9.5
2023-09-27T03:21:57.770Z,9.437
2023-09-27T03:24:57.714Z,9.687
2023-09-27T03:27:57.455Z,9.687
2023-09-27T03:30:57.670Z,9.75
2023-09-27T03:33:57.029Z,9.75
2023-09-27T03:36:57.430Z,9.937
2023-09-27T03:39:57.346Z,9.75
2023-09-27T03:42:57.412Z,10.125
2023-09-27T03:45:57.679Z,10.187
2023-09-27T03:48:57.314Z,10.0
2023-09-27T03:51:57.862Z,9.875
2023-09-27T03:54:57.401Z,9.75
2023-09-27T03:57:57.398Z,10.062
2023-09-27T04:00:57.511Z,10.25
2023-09-27T04:03:57.165Z,10.125
2023-09-27T04:06:57.392Z,10.125
2023-09-27T04:09:57.222Z,9.875
2023-09-27T04:12:57.385Z,9.75
2023-09-27T04:15:57.605Z,10.312
2023-09-27T04:18:57.401Z,10.625
2023-09-27T04:21:57.328Z,10.875
2023-09-27T04:24:57.348Z,10.875
2023-09-27T04:27:57.330Z,10.375
2023-09-27T04:30:57.558Z,10.375
2023-09-27T04:33:57.898Z,9.937
2023-09-27T04:36:57.562Z,9.875
2023-09-27T04:39:57.658Z,9.875
2023-09-27T04:42:56.828Z,9.875
2023-09-27T04:45:58.091Z,9.875
2023-09-27T04:48:57.926Z,9.625
2023-09-27T04:51:57.678Z,9.687
2023-09-27T04:54:57.326Z,9.687
2023-09-27T04:57:57.972Z,9.5
2023-09-27T05:00:57.878Z,9.5
2023-09-27T05:03:57.194Z,9.5
2023-09-27T05:06:57.202Z,9.25
2023-09-27T05:09:57.295Z,9.062
2023-09-27T05:12:57.694Z,8.937
2023-09-27T05:15:58.480Z,8.812
2023-09-27T05:18:58.032Z,8.625
2023-09-27T05:21:58.032Z,8.812
2023-09-27T05:24:57.836Z,8.812
2023-09-27T05:27:57.206Z,8.562
2023-09-27T05:30:58.510Z,8.687
2023-09-27T05:33:57.908Z,9.0
2023-09-27T05:36:57.310Z,9.25
2023-09-27T05:39:57.829Z,9.562
2023-09-27T05:42:59.775Z,9.875
2023-09-27T05:45:57.836Z,10.062
2023-09-27T05:48:57.641Z,10.187
2023-09-27T05:51:57.608Z,10.187
2023-09-27T05:54:57.873Z,9.937
2023-09-27T05:57:57.423Z,9.812
2023-09-27T06:00:58.577Z,9.687
2023-09-27T06:03:57.505Z,9.75
2023-09-27T06:06:57.497Z,9.937
2023-09-27T06:09:58.275Z,10.062
2023-09-27T06:12:57.515Z,10.125
2023-09-27T06:15:57.682Z,10.25
2023-09-27T06:18:57.344Z,10.375
2023-09-27T06:21:58.543Z,10.562
2023-09-27T06:24:58.056Z,10.625
2023-09-27T06:27:57.472Z,11.375
2023-09-27T06:30:57.615Z,11.625
2023-09-27T06:33:57.642Z,12.062
2023-09-27T06:36:57.274Z,12.25
2023-09-27T06:39:57.882Z,12.437
2023-09-27T06:42:57.461Z,12.437
2023-09-27T06:45:57.799Z,12.75
2023-09-27T06:48:57.203Z,12.937
2023-09-27T06:51:56.938Z,12.937
2023-09-27T06:54:57.859Z,12.875
2023-09-27T06:57:57.430Z,12.875
2023-09-27T07:00:57.876Z,13.062
2023-09-27T07:03:58.015Z,13.062
2023-09-27T07:06:56.927Z,13.125
2023-09-27T07:09:58.188Z,13.375
2023-09-27T07:12:56.782Z,13.375
2023-09-27T07:15:58.270Z,14.125
2023-09-27T07:18:57.771Z,14.375
2023-09-27T07:21:57.740Z,14.687
2023-09-27T07:24:57.250Z,14.687
2023-09-27T07:27:57.253Z,14.687
2023-09-27T07:30:57.699Z,14.812
2023-09-27T07:33:57.156Z,14.875
2023-09-27T07:36:57.179Z,15.125
2023-09-27T07:39:57.084Z,15.125
2023-09-27T07:42:57.038Z,15.437
2023-09-27T07:45:56.944Z,15.812
2023-09-27T07:48:57.643Z,16.25
2023-09-27T07:51:57.042Z,16.25
2023-09-27T07:54:57.485Z,16.125
2023-09-27T07:57:58.039Z,16.125
2023-09-27T08:00:57.993Z,16.125
2023-09-27T08:03:57.149Z,16.562
2023-09-27T08:06:57.707Z,16.312
2023-09-27T08:10:15.315Z,16.75
2023-09-27T08:12:56.897Z,16.687
2023-09-27T08:15:57.098Z,16.812
2023-09-27T08:18:57.619Z,17.312
2023-09-27T08:21:57.564Z,17.062
2023-09-27T08:24:57.394Z,17.312
2023-09-27T08:27:57.737Z,17.5
2023-09-27T08:30:57.581Z,17.437
2023-09-27T08:33:56.933Z,17.312
2023-09-27T08:36:57.162Z,17.312
2023-09-27T08:39:57.196Z,17.75
2023-09-27T08:42:57.245Z,18.062
2023-09-27T08:45:57.426Z,18.937
2023-09-27T08:48:57.349Z,18.75
2023-09-27T08:51:57.370Z,18.937
2023-09-27T08:54:57.386Z,19.25
2023-09-27T08:57:56.979Z,19.625
2023-09-27T09:00:57.602Z,19.062
2023-09-27T09:03:57.652Z,19.125
2023-09-27T09:06:57.750Z,19.125
2023-09-27T09:09:57.189Z,19.937
2023-09-27T09:12:57.418Z,20.25
2023-09-27T09:15:57.973Z,20.312
2023-09-27T09:18:57.248Z,20.0
2023-09-27T09:21:57.237Z,19.937
2023-09-27T09:24:57.325Z,19.937
2023-09-27T09:27:57.757Z,20.0
2023-09-27T09:30:57.703Z,19.937
2023-09-27T09:33:56.655Z,20.187
2023-09-27T09:36:57.355Z,20.187
2023-09-27T09:39:57.098Z,20.125
2023-09-27T09:42:59.611Z,20.125
2023-09-27T09:45:58.082Z,20.875
2023-09-27T09:48:57.485Z,20.375
2023-09-27T09:51:57.777Z,20.812
2023-09-27T09:55:11.016Z,20.875
2023-09-27T09:57:56.914Z,20.875
2023-09-27T10:00:58.129Z,21.937
2023-09-27T10:03:58.118Z,22.062
2023-09-27T10:06:57.945Z,22.125
2023-09-27T10:09:57.322Z,22.125
2023-09-27T10:12:57.049Z,21.562
2023-09-27T10:15:57.426Z,21.5
2023-09-27T10:18:57.047Z,22.0
2023-09-27T10:21:56.979Z,22.0
2023-09-27T10:24:57.384Z,22.0
2023-09-27T10:27:56.959Z,22.25
2023-09-27T10:30:57.448Z,22.75
2023-09-27T10:33:56.868Z,22.687
2023-09-27T10:37:15.233Z,23.187
2023-09-27T10:39:57.703Z,23.312
2023-09-27T10:42:57.133Z,22.812
2023-09-27T10:45:57.417Z,22.75
2023-09-27T10:48:56.826Z,23.687
2023-09-27T10:52:06.335Z,23.687
2023-09-27T10:54:57.592Z,23.062
2023-09-27T10:57:57.677Z,23.062
2023-09-27T11:00:57.917Z,23.062
2023-09-27T11:04:17.221Z,23.062
2023-09-27T11:06:56.810Z,22.812
2023-09-27T11:09:57.884Z,23.062
2023-09-27T11:12:57.254Z,23.437
2023-09-27T11:15:57.518Z,23.687
2023-09-27T11:18:57.119Z,23.5
2023-09-27T11:21:57.896Z,23.375
2023-09-27T11:24:57.174Z,23.375
2023-09-27T11:27:57.492Z,23.812
2023-09-27T11:30:57.530Z,23.437
2023-09-27T11:33:57.720Z,23.5
2023-09-27T11:36:57.073Z,23.812
2023-09-27T11:39:58.125Z,23.625
2023-09-27T11:42:57.063Z,23.625
2023-09-27T11:45:57.934Z,23.75
2023-09-27T11:48:58.065Z,23.375
2023-09-27T11:51:58.919Z,23.062
2023-09-27T11:54:57.348Z,24.062
2023-09-27T11:57:57.826Z,23.5
2023-09-27T12:00:57.953Z,23.5
2023-09-27T12:03:57.841Z,24.062
2023-09-27T12:06:57.978Z,24.062
2023-09-27T12:09:57.385Z,24.062
2023-09-27T12:12:57.122Z,24.687
2023-09-27T12:15:56.998Z,24.812
2023-09-27T12:18:57.579Z,24.937
2023-09-27T12:21:57.054Z,25.125
2023-09-27T12:24:57.721Z,24.625
2023-09-27T12:27:57.035Z,24.062
2023-09-27T12:30:57.170Z,24.812
2023-09-27T12:33:56.918Z,24.875
2023-09-27T12:36:57.129Z,25.062
2023-09-27T12:39:57.276Z,24.562
2023-09-27T12:42:57.771Z,24.562
2023-09-27T12:45:57.216Z,24.5
2023-09-27T12:48:57.240Z,25.125
2023-09-27T12:51:56.878Z,24.75
2023-09-27T12:54:56.785Z,24.375
2023-09-27T12:57:57.662Z,25.187
2023-09-27T13:00:57.098Z,24.937
2023-09-27T13:03:57.365Z,24.937
2023-09-27T13:06:57.031Z,25.312
2023-09-27T13:09:57.596Z,25.187
2023-09-27T13:12:57.576Z,25.187
2023-09-27T13:15:57.185Z,25.562
2023-09-27T13:18:57.589Z,25.0
2023-09-27T13:21:57.149Z,25.0
2023-09-27T13:24:57.603Z,25.375
2023-09-27T13:27:57.723Z,25.5
2023-09-27T13:30:57.823Z,26.375
2023-09-27T13:34:09.523Z,25.687
2023-09-27T13:36:57.204Z,25.25
2023-09-27T13:39:57.387Z,23.625
2023-09-27T13:42:57.016Z,23.562
2023-09-27T13:45:57.428Z,23.625
2023-09-27T13:48:57.190Z,23.5
2023-09-27T13:51:57.201Z,23.5
2023-09-27T13:54:57.536Z,23.5
2023-09-27T13:57:57.130Z,23.375
2023-09-27T14:00:58.117Z,23.687
2023-09-27T14:03:56.955Z,23.937
2023-09-27T14:06:56.853Z,23.5
2023-09-27T14:09:57.630Z,23.5
2023-09-27T14:12:57.421Z,22.5
2023-09-27T14:15:57.076Z,22.687
2023-09-27T14:18:57.807Z,22.187
2023-09-27T14:21:57.534Z,22.125
2023-09-27T14:24:57.143Z,22.25
2023-09-27T14:27:57.463Z,22.437
2023-09-27T14:30:58.082Z,22.562
2023-09-27T14:33:59.195Z,22.0
2023-09-27T14:36:58.068Z,22.0
2023-09-27T14:39:58.212Z,22.125
2023-09-27T14:42:56.890Z,22.125
2023-09-27T14:45:58.022Z,22.187
2023-09-27T14:48:58.445Z,21.75
2023-09-27T14:51:57.301Z,21.75
2023-09-27T14:54:57.852Z,21.937
2023-09-27T14:57:57.840Z,21.937
2023-09-27T15:00:57.868Z,21.562
2023-09-27T15:03:57.246Z,21.687
2023-09-27T15:06:57.661Z,21.687
2023-09-27T15:09:58.067Z,21.375
2023-09-27T15:12:57.448Z,21.5
2023-09-27T15:15:57.495Z,21.5
2023-09-27T15:18:57.244Z,21.25
2023-09-27T15:21:57.721Z,21.062
2023-09-27T15:24:57.713Z,20.937
2023-09-27T15:27:57.384Z,20.75
2023-09-27T15:30:57.877Z,20.625
2023-09-27T15:33:57.497Z,20.625
2023-09-27T15:36:57.960Z,20.437
2023-09-27T15:39:58.476Z,20.375
2023-09-27T15:42:57.450Z,20.5
2023-09-27T15:45:57.591Z,20.5
2023-09-27T15:48:58.122Z,20.437
2023-09-27T15:51:58.219Z,20.375
2023-09-27T15:54:57.407Z,20.375
2023-09-27T15:57:58.358Z,20.25
2023-09-27T16:00:58.621Z,20.187
2023-09-27T16:03:57.680Z,20.187
2023-09-27T16:06:57.057Z,20.0
2023-09-27T16:09:57.644Z,19.875
2023-09-27T16:12:58.211Z,19.625
2023-09-27T16:15:58.451Z,19.437
2023-09-27T16:18:57.671Z,19.375
2023-09-27T16:21:57.770Z,19.312
2023-09-27T16:24:57.772Z,19.187
2023-09-27T16:27:57.925Z,19.062
2023-09-27T16:30:58.657Z,18.937
2023-09-27T16:33:58.195Z,18.937
2023-09-27T16:36:57.756Z,18.75
2023-09-27T16:39:58.290Z,18.75
2023-09-27T16:42:57.636Z,18.812
2023-09-27T16:45:57.938Z,18.812
2023-09-27T16:48:58.094Z,18.812
2023-09-27T16:51:58.214Z,18.5
2023-09-27T16:54:57.656Z,18.25
2023-09-27T16:57:57.927Z,18.375
2023-09-27T17:00:58.284Z,18.312
2023-09-27T17:03:57.335Z,18.25
2023-09-27T17:06:57.572Z,18.187
2023-09-27T17:09:57.445Z,17.937
2023-09-27T17:12:57.302Z,17.875
2023-09-27T17:15:57.431Z,17.875
2023-09-27T17:18:58.257Z,18.062
2023-09-27T17:21:57.850Z,18.0
2023-09-27T17:24:58.102Z,18.0
2023-09-27T17:27:57.389Z,17.625
2023-09-27T17:30:57.350Z,17.437
2023-09-27T17:33:58.488Z,17.25
2023-09-27T17:36:57.419Z,17.062
2023-09-27T17:39:58.456Z,17.0
2023-09-27T17:42:58.118Z,16.75
2023-09-27T17:45:58.571Z,16.75
2023-09-27T17:48:58.054Z,16.75
2023-09-27T17:51:57.145Z,17.062
2023-09-27T17:54:57.978Z,17.25
2023-09-27T17:57:57.818Z,17.312
2023-09-27T18:00:58.200Z,17.125
2023-09-27T18:03:58.194Z,16.812
2023-09-27T18:06:57.641Z,16.812
2023-09-27T18:09:57.987Z,16.812
2023-09-27T18:12:57.805Z,15.75
2023-09-27T18:15:57.175Z,15.75
2023-09-27T18:18:57.685Z,15.5
2023-09-27T18:21:57.940Z,15.5
2023-09-27T18:24:57.084Z,15.437
2023-09-27T18:27:57.921Z,14.812
2023-09-27T18:30:57.303Z,14.875
2023-09-27T18:33:58.138Z,15.375
2023-09-27T18:36:57.467Z,15.562
2023-09-27T18:39:57.449Z,15.25
2023-09-27T18:42:57.355Z,15.75
2023-09-27T18:45:58.089Z,15.75
2023-09-27T18:48:57.596Z,15.062
2023-09-27T18:51:57.482Z,14.437
2023-09-27T18:54:57.587Z,14.187
2023-09-27T18:57:57.303Z,14.0
2023-09-27T19:01:26.083Z,13.875
2023-09-27T19:03:58.874Z,13.687
2023-09-27T19:06:57.574Z,13.5
2023-09-27T19:09:57.851Z,13.312
2023-09-27T19:12:57.795Z,13.125
2023-09-27T19:15:57.857Z,13.0
2023-09-27T19:18:57.568Z,12.875
2023-09-27T19:21:58.048Z,12.875
2023-09-27T19:24:57.847Z,13.0
2023-09-27T19:27:57.583Z,12.812
2023-09-27T19:30:58.010Z,12.687
2023-09-27T19:33:57.370Z,12.75
2023-09-27T19:36:57.793Z,12.75
2023-09-27T19:39:57.505Z,12.875
2023-09-27T19:42:57.788Z,12.937
2023-09-27T19:45:58.063Z,13.062
2023-09-27T19:48:57.627Z,13.125
2023-09-27T19:51:57.266Z,13.25
2023-09-27T19:54:57.700Z,13.375
2023-09-27T19:57:57.875Z,13.5
2023-09-27T20:00:57.738Z,13.25
2023-09-27T20:03:57.353Z,13.312
2023-09-27T20:06:57.394Z,13.187
2023-09-27T20:09:57.996Z,13.25
2023-09-27T20:12:57.542Z,13.25
2023-09-27T20:15:57.618Z,12.875
2023-09-27T20:18:57.133Z,12.625
2023-09-27T20:21:57.163Z,12.937
2023-09-27T20:24:57.976Z,13.812
2023-09-27T20:27:57.826Z,14.5
2023-09-27T20:30:57.873Z,14.562
2023-09-27T20:33:57.384Z,14.062
2023-09-27T20:36:57.262Z,13.875
2023-09-27T20:39:57.547Z,13.875
2023-09-27T20:42:57.946Z,13.875
2023-09-27T20:45:57.756Z,13.062
2023-09-27T20:48:57.467Z,13.062
2023-09-27T20:51:57.861Z,12.75
2023-09-27T20:54:57.661Z,13.062
2023-09-27T20:57:57.839Z,13.062
2023-09-27T21:00:59.317Z,12.875
2023-09-27T21:03:57.825Z,12.875
2023-09-27T21:06:58.231Z,13.125
2023-09-27T21:09:58.150Z,13.125
2023-09-27T21:12:58.372Z,12.812
2023-09-27T21:15:58.156Z,12.5
2023-09-27T21:18:57.767Z,12.375
2023-09-27T21:21:57.924Z,12.625
2023-09-27T21:24:59.672Z,12.687
2023-09-27T21:27:58.046Z,12.687
2023-09-27T21:30:57.991Z,13.687
2023-09-27T21:33:57.829Z,13.187
2023-09-27T21:36:57.806Z,13.437
2023-09-27T21:39:57.708Z,13.375
2023-09-27T21:42:57.920Z,13.625
2023-09-27T21:45:58.551Z,13.625
2023-09-27T21:48:57.263Z,13.625
2023-09-27T21:51:57.605Z,13.812
2023-09-27T21:54:56.979Z,14.062
2023-09-27T21:57:57.223Z,15.562
2023-09-27T22:00:58.373Z,16.312
2023-09-27T22:03:58.298Z,16.562
2023-09-27T22:06:57.409Z,16.687
2023-09-27T22:09:57.586Z,16.687
2023-09-27T22:12:57.919Z,16.687
2023-09-27T22:15:58.441Z,16.687
2023-09-27T22:18:56.805Z,17.187
2023-09-27T22:21:57.167Z,17.25
2023-09-27T22:24:58.075Z,17.125
2023-09-27T22:27:57.710Z,17.187
2023-09-27T22:30:58.065Z,17.0
2023-09-27T22:33:56.749Z,17.187
2023-09-27T22:36:57.919Z,17.0
2023-09-27T22:40:12.643Z,17.0
2023-09-27T22:42:56.696Z,17.0
2023-09-27T22:45:57.244Z,17.187
2023-09-27T22:48:56.966Z,17.062
2023-09-27T22:51:57.865Z,17.062
2023-09-27T22:54:56.783Z,17.062
2023-09-27T22:57:57.625Z,16.687
2023-09-27T23:00:57.954Z,16.812
2023-09-27T23:03:57.627Z,16.437
2023-09-27T23:06:57.556Z,16.437
2023-09-27T23:09:58.188Z,16.375
2023-09-27T23:12:57.164Z,16.625
2023-09-27T23:15:57.690Z,16.875
2023-09-27T23:18:57.593Z,16.875
2023-09-27T23:21:57.312Z,16.75
2023-09-27T23:24:57.039Z,16.937
2023-09-27T23:27:57.505Z,16.625
2023-09-27T23:31:15.071Z,16.687
2023-09-27T23:33:58.229Z,16.75
2023-09-27T23:36:57.662Z,16.75
2023-09-27T23:39:58.166Z,16.625
2023-09-27T23:42:57.484Z,16.687
2023-09-27T23:45:57.666Z,16.875
2023-09-27T23:48:57.395Z,16.812
2023-09-27T23:51:57.615Z,16.625
2023-09-27T23:54:57.556Z,16.687
2023-09-27T23:57:56.950Z,16.687
